sensor_id;sensor_type;location;lat;lon;timestamp;P1;durP1;ratioP1;P2;durP2;ratioP2
52396;SDS011;38322;53.108;6.308;2022-09-14T05:02:42;4.35;;;2.25;;
52396;SDS011;38322;53.108;6.308;2022-09-14T05:05:08;5.55;;;2.15;;
52396;SDS011;38322;53.108;6.308;2022-09-14T05:07:34;2.70;;;1.92;;
52396;SDS011;38322;53.108;6.308;2022-09-14T05:10:00;9.77;;;2.33;;
52396;SDS011;38322;53.108;6.308;2022-09-14T05:12:26;5.60;;;2.25;;
52396;SDS011;38322;53.108;6.308;2022-09-14T05:14:53;3.83;;;2.13;;
52396;SDS011;38322;53.108;6.308;2022-09-14T05:17:19;5.47;;;2.35;;
52396;SDS011;38322;53.108;6.308;2022-09-14T05:19:44;6.30;;;2.80;;
52396;SDS011;38322;53.108;6.308;2022-09-14T05:22:10;5.47;;;1.88;;
52396;SDS011;38322;53.108;6.308;2022-09-14T05:24:36;5.78;;;2.13;;
52396;SDS011;38322;53.108;6.308;2022-09-14T05:27:02;3.33;;;1.50;;
52396;SDS011;38322;53.108;6.308;2022-09-14T05:29:28;5.75;;;2.20;;
52396;SDS011;38322;53.108;6.308;2022-09-14T05:31:55;3.08;;;1.88;;
52396;SDS011;38322;53.108;6.308;2022-09-14T05:34:21;6.65;;;2.00;;
52396;SDS011;38322;53.108;6.308;2022-09-14T05:36:47;3.00;;;2.13;;
52396;SDS011;38322;53.108;6.308;2022-09-14T05:39:13;7.28;;;3.00;;
52396;SDS011;38322;53.108;6.308;2022-09-14T05:41:39;10.07;;;2.08;;
52396;SDS011;38322;53.108;6.308;2022-09-14T05:44:05;3.42;;;1.55;;
52396;SDS011;38322;53.108;6.308;2022-09-14T05:46:31;6.05;;;1.40;;
52396;SDS011;38322;53.108;6.308;2022-09-14T05:48:58;4.22;;;1.08;;
52396;SDS011;38322;53.108;6.308;2022-09-14T05:51:24;6.72;;;3.28;;
52396;SDS011;38322;53.108;6.308;2022-09-14T05:53:52;3.10;;;1.58;;
52396;SDS011;38322;53.108;6.308;2022-09-14T05:56:20;2.17;;;1.45;;
52396;SDS011;38322;53.108;6.308;2022-09-14T05:58:48;3.30;;;2.03;;
52396;SDS011;38322;53.108;6.308;2022-09-14T06:03:42;2.42;;;1.60;;
52396;SDS011;38322;53.108;6.308;2022-09-14T06:06:10;5.78;;;3.50;;
52396;SDS011;38322;53.108;6.308;2022-09-14T06:08:37;5.63;;;1.83;;
52396;SDS011;38322;53.108;6.308;2022-09-14T06:11:09;5.88;;;1.52;;
52396;SDS011;38322;53.108;6.308;2022-09-14T06:13:37;5.85;;;2.10;;
52396;SDS011;38322;53.108;6.308;2022-09-14T06:16:04;4.55;;;1.95;;
52396;SDS011;38322;53.108;6.308;2022-09-14T06:18:32;2.83;;;1.38;;
52396;SDS011;38322;53.108;6.308;2022-09-14T06:20:58;4.22;;;2.08;;
52396;SDS011;38322;53.108;6.308;2022-09-14T06:23:25;7.72;;;1.80;;
52396;SDS011;38322;53.108;6.308;2022-09-14T06:25:53;6.05;;;1.77;;
52396;SDS011;38322;53.108;6.308;2022-09-14T06:28:21;1.58;;;1.13;;
52396;SDS011;38322;53.108;6.308;2022-09-14T06:30:48;3.55;;;1.80;;
52396;SDS011;38322;53.108;6.308;2022-09-14T06:33:14;4.40;;;1.70;;
52396;SDS011;38322;53.108;6.308;2022-09-14T06:35:40;4.15;;;1.40;;
52396;SDS011;38322;53.108;6.308;2022-09-14T06:38:06;2.38;;;1.90;;
52396;SDS011;38322;53.108;6.308;2022-09-14T06:40:33;2.75;;;1.85;;
52396;SDS011;38322;53.108;6.308;2022-09-14T06:42:59;4.55;;;2.03;;
52396;SDS011;38322;53.108;6.308;2022-09-14T06:45:28;9.63;;;3.63;;
52396;SDS011;38322;53.108;6.308;2022-09-14T06:47:55;8.00;;;3.67;;
52396;SDS011;38322;53.108;6.308;2022-09-14T06:50:21;5.25;;;3.50;;
52396;SDS011;38322;53.108;6.308;2022-09-14T06:52:47;4.15;;;2.28;;
52396;SDS011;38322;53.108;6.308;2022-09-14T06:55:13;5.40;;;3.28;;
52396;SDS011;38322;53.108;6.308;2022-09-14T06:57:39;5.72;;;2.92;;
52396;SDS011;38322;53.108;6.308;2022-09-14T07:00:05;8.30;;;3.00;;
52396;SDS011;38322;53.108;6.308;2022-09-14T07:02:31;8.20;;;2.33;;
52396;SDS011;38322;53.108;6.308;2022-09-14T07:04:57;5.00;;;2.72;;
52396;SDS011;38322;53.108;6.308;2022-09-14T07:07:24;6.22;;;2.95;;
52396;SDS011;38322;53.108;6.308;2022-09-14T07:09:50;5.43;;;2.63;;
52396;SDS011;38322;53.108;6.308;2022-09-14T07:12:15;4.00;;;2.13;;
52396;SDS011;38322;53.108;6.308;2022-09-14T07:14:41;6.78;;;1.90;;
52396;SDS011;38322;53.108;6.308;2022-09-14T07:17:07;4.95;;;2.10;;
52396;SDS011;38322;53.108;6.308;2022-09-14T07:19:33;6.10;;;2.92;;
52396;SDS011;38322;53.108;6.308;2022-09-14T07:21:59;4.80;;;2.08;;
52396;SDS011;38322;53.108;6.308;2022-09-14T07:24:26;6.32;;;2.58;;
52396;SDS011;38322;53.108;6.308;2022-09-14T07:26:52;4.40;;;1.95;;
52396;SDS011;38322;53.108;6.308;2022-09-14T07:29:18;6.30;;;1.60;;
52396;SDS011;38322;53.108;6.308;2022-09-14T07:31:46;5.95;;;2.40;;
52396;SDS011;38322;53.108;6.308;2022-09-14T07:34:15;3.28;;;2.30;;
52396;SDS011;38322;53.108;6.308;2022-09-14T07:36:41;5.57;;;1.67;;
52396;SDS011;38322;53.108;6.308;2022-09-14T07:39:09;3.17;;;1.40;;
52396;SDS011;38322;53.108;6.308;2022-09-14T07:41:37;6.38;;;1.75;;
52396;SDS011;38322;53.108;6.308;2022-09-14T07:44:04;5.35;;;1.35;;
52396;SDS011;38322;53.108;6.308;2022-09-14T07:46:34;6.75;;;1.92;;
52396;SDS011;38322;53.108;6.308;2022-09-14T07:49:03;7.35;;;1.83;;
52396;SDS011;38322;53.108;6.308;2022-09-14T07:51:30;2.60;;;1.30;;
52396;SDS011;38322;53.108;6.308;2022-09-14T07:53:58;6.75;;;1.58;;
52396;SDS011;38322;53.108;6.308;2022-09-14T07:56:26;6.57;;;1.63;;
52396;SDS011;38322;53.108;6.308;2022-09-14T07:58:53;2.22;;;1.60;;
52396;SDS011;38322;53.108;6.308;2022-09-14T08:01:22;4.28;;;1.80;;
52396;SDS011;38322;53.108;6.308;2022-09-14T08:03:49;3.28;;;2.05;;
52396;SDS011;38322;53.108;6.308;2022-09-14T08:06:17;9.38;;;1.55;;
52396;SDS011;38322;53.108;6.308;2022-09-14T08:08:47;5.22;;;0.93;;
52396;SDS011;38322;53.108;6.308;2022-09-14T08:11:15;2.95;;;1.58;;
52396;SDS011;38322;53.108;6.308;2022-09-14T08:13:44;4.85;;;1.20;;
52396;SDS011;38322;53.108;6.308;2022-09-14T08:16:14;4.05;;;0.90;;
52396;SDS011;38322;53.108;6.308;2022-09-14T08:18:40;6.25;;;1.45;;
52396;SDS011;38322;53.108;6.308;2022-09-14T08:21:07;6.10;;;1.00;;
52396;SDS011;38322;53.108;6.308;2022-09-14T08:23:36;5.57;;;1.05;;
52396;SDS011;38322;53.108;6.308;2022-09-14T08:26:04;3.47;;;1.00;;
52396;SDS011;38322;53.108;6.308;2022-09-14T08:28:31;3.97;;;2.30;;
52396;SDS011;38322;53.108;6.308;2022-09-14T08:31:03;7.28;;;1.13;;
52396;SDS011;38322;53.108;6.308;2022-09-14T08:33:30;3.72;;;1.00;;
52396;SDS011;38322;53.108;6.308;2022-09-14T08:35:58;7.40;;;0.93;;
52396;SDS011;38322;53.108;6.308;2022-09-14T08:38:24;7.40;;;1.10;;
52396;SDS011;38322;53.108;6.308;2022-09-14T08:40:49;6.57;;;1.30;;
52396;SDS011;38322;53.108;6.308;2022-09-14T08:43:15;5.95;;;0.80;;
52396;SDS011;38322;53.108;6.308;2022-09-14T08:45:43;7.55;;;0.80;;
52396;SDS011;38322;53.108;6.308;2022-09-14T08:48:16;6.20;;;1.15;;
52396;SDS011;38322;53.108;6.308;2022-09-14T08:50:49;8.63;;;1.38;;
52396;SDS011;38322;53.108;6.308;2022-09-14T08:53:19;5.15;;;0.90;;
52396;SDS011;38322;53.108;6.308;2022-09-14T08:55:48;5.15;;;0.50;;
52396;SDS011;38322;53.108;6.308;2022-09-14T09:01:00;11.00;;;0.88;;
52396;SDS011;38322;53.108;6.308;2022-09-14T09:09:03;10.93;;;0.68;;
52396;SDS011;38322;53.108;6.308;2022-09-14T09:11:39;10.40;;;1.08;;
52396;SDS011;38322;53.108;6.308;2022-09-14T09:14:17;10.10;;;0.52;;
52396;SDS011;38322;53.108;6.308;2022-09-14T09:16:49;3.25;;;0.38;;
52396;SDS011;38322;53.108;6.308;2022-09-14T09:19:21;6.63;;;0.38;;
52396;SDS011;38322;53.108;6.308;2022-09-14T09:21:51;6.55;;;0.50;;
52396;SDS011;38322;53.108;6.308;2022-09-14T09:26:48;4.28;;;0.90;;
52396;SDS011;38322;53.108;6.308;2022-09-14T09:29:14;4.05;;;0.35;;
52396;SDS011;38322;53.108;6.308;2022-09-14T09:31:42;9.90;;;0.88;;
52396;SDS011;38322;53.108;6.308;2022-09-14T09:34:12;2.75;;;0.60;;
52396;SDS011;38322;53.108;6.308;2022-09-14T09:36:40;1.42;;;0.30;;
52396;SDS011;38322;53.108;6.308;2022-09-14T09:39:10;0.97;;;0.20;;
52396;SDS011;38322;53.108;6.308;2022-09-14T09:44:08;4.15;;;0.45;;
52396;SDS011;38322;53.108;6.308;2022-09-14T09:46:39;8.07;;;0.52;;
52396;SDS011;38322;53.108;6.308;2022-09-14T09:49:31;4.53;;;0.40;;
52396;SDS011;38322;53.108;6.308;2022-09-14T09:52:07;2.10;;;0.40;;
52396;SDS011;38322;53.108;6.308;2022-09-14T09:54:35;6.20;;;2.10;;
52396;SDS011;38322;53.108;6.308;2022-09-14T09:57:05;4.25;;;0.52;;
52396;SDS011;38322;53.108;6.308;2022-09-14T09:59:45;5.57;;;0.43;;
52396;SDS011;38322;53.108;6.308;2022-09-14T10:05:00;5.55;;;1.05;;
52396;SDS011;38322;53.108;6.308;2022-09-14T10:07:29;3.10;;;0.50;;
52396;SDS011;38322;53.108;6.308;2022-09-14T10:09:59;3.05;;;0.47;;
52396;SDS011;38322;53.108;6.308;2022-09-14T10:12:30;9.70;;;0.60;;
52396;SDS011;38322;53.108;6.308;2022-09-14T10:17:32;1.67;;;0.32;;
52396;SDS011;38322;53.108;6.308;2022-09-14T10:19:58;8.70;;;0.52;;
52396;SDS011;38322;53.108;6.308;2022-09-14T10:22:25;3.60;;;0.30;;
52396;SDS011;38322;53.108;6.308;2022-09-14T10:24:54;2.05;;;0.47;;
52396;SDS011;38322;53.108;6.308;2022-09-14T10:27:34;3.80;;;0.30;;
52396;SDS011;38322;53.108;6.308;2022-09-14T10:30:05;5.97;;;0.68;;
52396;SDS011;38322;53.108;6.308;2022-09-14T10:32:36;5.10;;;0.35;;
52396;SDS011;38322;53.108;6.308;2022-09-14T10:35:11;2.70;;;0.30;;
52396;SDS011;38322;53.108;6.308;2022-09-14T10:40:18;5.28;;;0.73;;
52396;SDS011;38322;53.108;6.308;2022-09-14T10:42:53;4.10;;;0.40;;
52396;SDS011;38322;53.108;6.308;2022-09-14T10:45:35;5.05;;;0.45;;
52396;SDS011;38322;53.108;6.308;2022-09-14T10:50:47;4.18;;;1.00;;
52396;SDS011;38322;53.108;6.308;2022-09-14T10:53:37;9.32;;;0.70;;
52396;SDS011;38322;53.108;6.308;2022-09-14T10:56:13;2.30;;;0.35;;
52396;SDS011;38322;53.108;6.308;2022-09-14T11:01:42;7.97;;;1.48;;
52396;SDS011;38322;53.108;6.308;2022-09-14T11:07:34;4.05;;;0.43;;
52396;SDS011;38322;53.108;6.308;2022-09-14T11:13:04;3.22;;;0.77;;
52396;SDS011;38322;53.108;6.308;2022-09-14T11:15:39;3.45;;;0.40;;
52396;SDS011;38322;53.108;6.308;2022-09-14T11:18:22;3.95;;;0.70;;
52396;SDS011;38322;53.108;6.308;2022-09-14T11:23:41;3.25;;;0.38;;
52396;SDS011;38322;53.108;6.308;2022-09-14T11:26:18;4.07;;;0.30;;
52396;SDS011;38322;53.108;6.308;2022-09-14T11:28:52;2.70;;;0.43;;
52396;SDS011;38322;53.108;6.308;2022-09-14T11:31:25;3.80;;;0.43;;
52396;SDS011;38322;53.108;6.308;2022-09-14T11:36:42;2.33;;;0.20;;
52396;SDS011;38322;53.108;6.308;2022-09-14T11:39:18;9.60;;;0.65;;
52396;SDS011;38322;53.108;6.308;2022-09-14T11:41:52;7.00;;;0.55;;
52396;SDS011;38322;53.108;6.308;2022-09-14T11:44:31;6.35;;;1.85;;
52396;SDS011;38322;53.108;6.308;2022-09-14T11:47:06;3.97;;;0.32;;
52396;SDS011;38322;53.108;6.308;2022-09-14T11:52:23;7.13;;;0.70;;
52396;SDS011;38322;53.108;6.308;2022-09-14T11:54:50;3.85;;;0.50;;
52396;SDS011;38322;53.108;6.308;2022-09-14T11:57:23;5.18;;;0.38;;
52396;SDS011;38322;53.108;6.308;2022-09-14T11:59:51;3.58;;;0.40;;
52396;SDS011;38322;53.108;6.308;2022-09-14T12:10:17;4.90;;;0.40;;
52396;SDS011;38322;53.108;6.308;2022-09-14T12:12:46;6.28;;;0.30;;
52396;SDS011;38322;53.108;6.308;2022-09-14T12:23:14;2.70;;;0.47;;
52396;SDS011;38322;53.108;6.308;2022-09-14T12:28:52;4.00;;;0.32;;
52396;SDS011;38322;53.108;6.308;2022-09-14T12:31:29;6.15;;;0.52;;
52396;SDS011;38322;53.108;6.308;2022-09-14T12:39:21;2.75;;;0.10;;
52396;SDS011;38322;53.108;6.308;2022-09-14T12:44:30;3.58;;;0.30;;
52396;SDS011;38322;53.108;6.308;2022-09-14T12:46:57;2.45;;;0.65;;
52396;SDS011;38322;53.108;6.308;2022-09-14T12:49:43;4.05;;;0.32;;
52396;SDS011;38322;53.108;6.308;2022-09-14T12:52:14;4.18;;;0.50;;
52396;SDS011;38322;53.108;6.308;2022-09-14T12:54:55;8.57;;;1.27;;
52396;SDS011;38322;53.108;6.308;2022-09-14T12:57:30;3.95;;;0.35;;
52396;SDS011;38322;53.108;6.308;2022-09-14T13:00:15;3.95;;;0.75;;
52396;SDS011;38322;53.108;6.308;2022-09-14T13:02:57;4.88;;;0.40;;
52396;SDS011;38322;53.108;6.308;2022-09-14T13:05:34;2.55;;;0.35;;
52396;SDS011;38322;53.108;6.308;2022-09-14T13:08:06;4.72;;;0.60;;
52396;SDS011;38322;53.108;6.308;2022-09-14T13:10:35;1.92;;;0.30;;
52396;SDS011;38322;53.108;6.308;2022-09-14T13:13:05;4.22;;;1.00;;
52396;SDS011;38322;53.108;6.308;2022-09-14T13:15:44;4.70;;;0.55;;
52396;SDS011;38322;53.108;6.308;2022-09-14T13:20:49;2.88;;;0.40;;
52396;SDS011;38322;53.108;6.308;2022-09-14T13:23:28;2.80;;;0.65;;
52396;SDS011;38322;53.108;6.308;2022-09-14T13:25:57;9.68;;;0.60;;
52396;SDS011;38322;53.108;6.308;2022-09-14T13:28:25;2.60;;;0.30;;
52396;SDS011;38322;53.108;6.308;2022-09-14T13:30:54;3.38;;;0.80;;
52396;SDS011;38322;53.108;6.308;2022-09-14T13:33:24;5.97;;;0.50;;
52396;SDS011;38322;53.108;6.308;2022-09-14T13:35:52;6.88;;;0.85;;
52396;SDS011;38322;53.108;6.308;2022-09-14T13:38:28;5.35;;;1.70;;
52396;SDS011;38322;53.108;6.308;2022-09-14T13:41:03;5.28;;;1.05;;
52396;SDS011;38322;53.108;6.308;2022-09-14T13:43:32;2.67;;;0.75;;
52396;SDS011;38322;53.108;6.308;2022-09-14T13:45:58;7.22;;;1.02;;
52396;SDS011;38322;53.108;6.308;2022-09-14T13:48:24;3.60;;;0.80;;
52396;SDS011;38322;53.108;6.308;2022-09-14T13:50:50;7.00;;;1.08;;
52396;SDS011;38322;53.108;6.308;2022-09-14T13:56:14;3.10;;;0.68;;
52396;SDS011;38322;53.108;6.308;2022-09-14T13:58:41;2.88;;;0.95;;
52396;SDS011;38322;53.108;6.308;2022-09-14T14:01:07;5.55;;;0.63;;
52396;SDS011;38322;53.108;6.308;2022-09-14T14:03:35;2.25;;;0.32;;
52396;SDS011;38322;53.108;6.308;2022-09-14T14:06:15;5.32;;;0.45;;
52396;SDS011;38322;53.108;6.308;2022-09-14T14:08:50;3.30;;;0.63;;
52396;SDS011;38322;53.108;6.308;2022-09-14T14:11:24;2.00;;;0.75;;
52396;SDS011;38322;53.108;6.308;2022-09-14T14:13:52;5.65;;;0.68;;
52396;SDS011;38322;53.108;6.308;2022-09-14T14:16:19;2.13;;;0.63;;
52396;SDS011;38322;53.108;6.308;2022-09-14T14:18:48;3.35;;;0.70;;
52396;SDS011;38322;53.108;6.308;2022-09-14T14:23:52;3.63;;;0.45;;
52396;SDS011;38322;53.108;6.308;2022-09-14T14:26:38;3.63;;;0.98;;
52396;SDS011;38322;53.108;6.308;2022-09-14T14:29:12;7.07;;;0.73;;
52396;SDS011;38322;53.108;6.308;2022-09-14T14:31:40;5.03;;;0.47;;
52396;SDS011;38322;53.108;6.308;2022-09-14T14:34:11;9.23;;;0.75;;
52396;SDS011;38322;53.108;6.308;2022-09-14T14:36:43;5.10;;;0.32;;
52396;SDS011;38322;53.108;6.308;2022-09-14T14:39:09;5.85;;;1.17;;
52396;SDS011;38322;53.108;6.308;2022-09-14T14:41:35;7.28;;;0.60;;
52396;SDS011;38322;53.108;6.308;2022-09-14T14:44:01;3.58;;;0.30;;
52396;SDS011;38322;53.108;6.308;2022-09-14T14:46:27;4.28;;;0.88;;
52396;SDS011;38322;53.108;6.308;2022-09-14T14:48:54;3.35;;;0.50;;
52396;SDS011;38322;53.108;6.308;2022-09-14T14:51:20;3.83;;;0.95;;
52396;SDS011;38322;53.108;6.308;2022-09-14T14:53:46;9.55;;;0.70;;
52396;SDS011;38322;53.108;6.308;2022-09-14T14:56:12;5.30;;;0.57;;
52396;SDS011;38322;53.108;6.308;2022-09-14T14:58:42;5.00;;;0.28;;
52396;SDS011;38322;53.108;6.308;2022-09-14T15:01:09;2.90;;;0.25;;
52396;SDS011;38322;53.108;6.308;2022-09-14T15:03:35;9.07;;;1.48;;
52396;SDS011;38322;53.108;6.308;2022-09-14T15:06:11;3.67;;;0.40;;
52396;SDS011;38322;53.108;6.308;2022-09-14T15:08:39;5.78;;;0.47;;
52396;SDS011;38322;53.108;6.308;2022-09-14T15:11:08;3.67;;;0.50;;
52396;SDS011;38322;53.108;6.308;2022-09-14T15:13:40;8.38;;;0.95;;
52396;SDS011;38322;53.108;6.308;2022-09-14T15:16:06;3.45;;;0.30;;
52396;SDS011;38322;53.108;6.308;2022-09-14T15:18:32;6.28;;;1.00;;
52396;SDS011;38322;53.108;6.308;2022-09-14T15:20:58;6.20;;;0.85;;
52396;SDS011;38322;53.108;6.308;2022-09-14T15:23:24;2.90;;;0.98;;
52396;SDS011;38322;53.108;6.308;2022-09-14T15:25:50;5.53;;;0.75;;
52396;SDS011;38322;53.108;6.308;2022-09-14T15:28:16;8.13;;;0.77;;
52396;SDS011;38322;53.108;6.308;2022-09-14T15:30:43;2.30;;;0.73;;
52396;SDS011;38322;53.108;6.308;2022-09-14T15:33:09;3.50;;;0.40;;
52396;SDS011;38322;53.108;6.308;2022-09-14T15:35:34;4.32;;;0.55;;
52396;SDS011;38322;53.108;6.308;2022-09-14T15:38:00;4.07;;;0.45;;
52396;SDS011;38322;53.108;6.308;2022-09-14T15:40:26;2.47;;;0.40;;
52396;SDS011;38322;53.108;6.308;2022-09-14T15:42:52;4.63;;;0.30;;
52396;SDS011;38322;53.108;6.308;2022-09-14T15:45:18;0.90;;;0.30;;
52396;SDS011;38322;53.108;6.308;2022-09-14T15:47:44;6.32;;;0.75;;
52396;SDS011;38322;53.108;6.308;2022-09-14T15:50:11;4.57;;;0.60;;
52396;SDS011;38322;53.108;6.308;2022-09-14T15:52:37;5.40;;;0.30;;
52396;SDS011;38322;53.108;6.308;2022-09-14T15:55:05;1.83;;;0.30;;
52396;SDS011;38322;53.108;6.308;2022-09-14T15:57:33;6.35;;;1.13;;
52396;SDS011;38322;53.108;6.308;2022-09-14T15:59:59;7.82;;;0.80;;
52396;SDS011;38322;53.108;6.308;2022-09-14T16:02:25;6.40;;;0.85;;
52396;SDS011;38322;53.108;6.308;2022-09-14T16:04:51;6.68;;;0.50;;
52396;SDS011;38322;53.108;6.308;2022-09-14T16:07:18;3.85;;;0.52;;
52396;SDS011;38322;53.108;6.308;2022-09-14T16:09:44;3.85;;;0.30;;
52396;SDS011;38322;53.108;6.308;2022-09-14T16:12:11;6.45;;;0.47;;
52396;SDS011;38322;53.108;6.308;2022-09-14T16:14:37;4.30;;;0.40;;
52396;SDS011;38322;53.108;6.308;2022-09-14T16:17:03;7.68;;;0.50;;
52396;SDS011;38322;53.108;6.308;2022-09-14T16:19:30;4.30;;;1.13;;
52396;SDS011;38322;53.108;6.308;2022-09-14T16:21:56;6.13;;;1.05;;
52396;SDS011;38322;53.108;6.308;2022-09-14T16:24:23;2.75;;;0.50;;
52396;SDS011;38322;53.108;6.308;2022-09-14T16:26:50;2.63;;;0.45;;
52396;SDS011;38322;53.108;6.308;2022-09-14T16:29:17;4.10;;;0.95;;
52396;SDS011;38322;53.108;6.308;2022-09-14T16:31:44;7.13;;;0.57;;
52396;SDS011;38322;53.108;6.308;2022-09-14T16:34:13;3.72;;;0.50;;
52396;SDS011;38322;53.108;6.308;2022-09-14T16:36:50;2.78;;;0.57;;
52396;SDS011;38322;53.108;6.308;2022-09-14T16:39:18;2.65;;;0.43;;
52396;SDS011;38322;53.108;6.308;2022-09-14T16:41:48;4.25;;;0.40;;
52396;SDS011;38322;53.108;6.308;2022-09-14T16:44:16;4.20;;;0.40;;
52396;SDS011;38322;53.108;6.308;2022-09-14T16:46:44;3.65;;;0.30;;
52396;SDS011;38322;53.108;6.308;2022-09-14T16:49:10;4.97;;;0.65;;
52396;SDS011;38322;53.108;6.308;2022-09-14T16:51:37;4.50;;;0.60;;
52396;SDS011;38322;53.108;6.308;2022-09-14T16:54:03;3.47;;;0.70;;
52396;SDS011;38322;53.108;6.308;2022-09-14T16:56:32;7.70;;;1.00;;
52396;SDS011;38322;53.108;6.308;2022-09-14T16:59:00;3.00;;;0.47;;
52396;SDS011;38322;53.108;6.308;2022-09-14T17:01:28;3.60;;;0.60;;
52396;SDS011;38322;53.108;6.308;2022-09-14T17:03:57;7.13;;;0.65;;
52396;SDS011;38322;53.108;6.308;2022-09-14T17:06:26;8.60;;;0.98;;
52396;SDS011;38322;53.108;6.308;2022-09-14T17:08:54;5.30;;;0.63;;
52396;SDS011;38322;53.108;6.308;2022-09-14T17:11:22;3.42;;;0.70;;
52396;SDS011;38322;53.108;6.308;2022-09-14T17:13:48;5.20;;;0.57;;
52396;SDS011;38322;53.108;6.308;2022-09-14T17:16:15;2.17;;;0.38;;
52396;SDS011;38322;53.108;6.308;2022-09-14T17:18:43;4.35;;;0.75;;
52396;SDS011;38322;53.108;6.308;2022-09-14T17:21:13;6.88;;;0.80;;
52396;SDS011;38322;53.108;6.308;2022-09-14T17:23:41;4.72;;;0.38;;
52396;SDS011;38322;53.108;6.308;2022-09-14T17:26:08;7.20;;;0.82;;
52396;SDS011;38322;53.108;6.308;2022-09-14T17:28:35;5.68;;;0.63;;
52396;SDS011;38322;53.108;6.308;2022-09-14T17:31:03;2.80;;;0.45;;
52396;SDS011;38322;53.108;6.308;2022-09-14T17:33:31;3.08;;;0.57;;
52396;SDS011;38322;53.108;6.308;2022-09-14T17:36:00;4.20;;;1.35;;
52396;SDS011;38322;53.108;6.308;2022-09-14T17:38:27;5.07;;;0.70;;
52396;SDS011;38322;53.108;6.308;2022-09-14T17:41:00;9.57;;;1.10;;
52396;SDS011;38322;53.108;6.308;2022-09-14T17:43:27;2.67;;;1.00;;
52396;SDS011;38322;53.108;6.308;2022-09-14T17:45:54;7.53;;;0.80;;
52396;SDS011;38322;53.108;6.308;2022-09-14T17:48:21;3.40;;;0.52;;
52396;SDS011;38322;53.108;6.308;2022-09-14T17:50:47;5.20;;;0.50;;
52396;SDS011;38322;53.108;6.308;2022-09-14T17:53:13;7.80;;;0.52;;
52396;SDS011;38322;53.108;6.308;2022-09-14T17:55:40;6.05;;;0.50;;
52396;SDS011;38322;53.108;6.308;2022-09-14T17:58:06;5.15;;;0.40;;
52396;SDS011;38322;53.108;6.308;2022-09-14T18:00:32;2.20;;;0.40;;
52396;SDS011;38322;53.108;6.308;2022-09-14T18:02:58;5.05;;;1.25;;
52396;SDS011;38322;53.108;6.308;2022-09-14T18:05:24;4.68;;;0.90;;
52396;SDS011;38322;53.108;6.308;2022-09-14T18:07:51;6.07;;;0.85;;
52396;SDS011;38322;53.108;6.308;2022-09-14T18:10:17;5.10;;;0.70;;
52396;SDS011;38322;53.108;6.308;2022-09-14T18:12:43;5.13;;;1.52;;
52396;SDS011;38322;53.108;6.308;2022-09-14T18:15:11;2.17;;;0.40;;
52396;SDS011;38322;53.108;6.308;2022-09-14T18:17:39;2.92;;;0.60;;
52396;SDS011;38322;53.108;6.308;2022-09-14T18:20:06;4.07;;;0.28;;
52396;SDS011;38322;53.108;6.308;2022-09-14T18:22:34;3.72;;;1.05;;
52396;SDS011;38322;53.108;6.308;2022-09-14T18:25:00;2.97;;;0.93;;
52396;SDS011;38322;53.108;6.308;2022-09-14T18:27:26;1.08;;;0.50;;
52396;SDS011;38322;53.108;6.308;2022-09-14T18:29:52;7.00;;;0.60;;
52396;SDS011;38322;53.108;6.308;2022-09-14T18:32:18;3.60;;;0.63;;
52396;SDS011;38322;53.108;6.308;2022-09-14T18:34:44;6.03;;;1.40;;
52396;SDS011;38322;53.108;6.308;2022-09-14T18:37:09;4.50;;;0.50;;
52396;SDS011;38322;53.108;6.308;2022-09-14T18:39:35;2.10;;;0.52;;
52396;SDS011;38322;53.108;6.308;2022-09-14T18:42:02;4.22;;;0.40;;
52396;SDS011;38322;53.108;6.308;2022-09-14T18:44:28;7.00;;;0.52;;
52396;SDS011;38322;53.108;6.308;2022-09-14T18:46:53;3.42;;;1.08;;
52396;SDS011;38322;53.108;6.308;2022-09-14T18:49:19;7.00;;;0.80;;
52396;SDS011;38322;53.108;6.308;2022-09-14T18:51:45;7.38;;;0.93;;
52396;SDS011;38322;53.108;6.308;2022-09-14T18:54:11;3.00;;;1.30;;
52396;SDS011;38322;53.108;6.308;2022-09-14T18:56:38;8.63;;;1.05;;
52396;SDS011;38322;53.108;6.308;2022-09-14T18:59:09;6.95;;;1.13;;
52396;SDS011;38322;53.108;6.308;2022-09-14T19:01:36;7.30;;;1.20;;
52396;SDS011;38322;53.108;6.308;2022-09-14T19:04:04;2.65;;;0.68;;
52396;SDS011;38322;53.108;6.308;2022-09-14T19:06:31;4.55;;;1.38;;
52396;SDS011;38322;53.108;6.308;2022-09-14T19:08:58;4.78;;;0.95;;
52396;SDS011;38322;53.108;6.308;2022-09-14T19:11:25;2.90;;;1.15;;
52396;SDS011;38322;53.108;6.308;2022-09-14T19:13:54;4.88;;;0.95;;
52396;SDS011;38322;53.108;6.308;2022-09-14T19:16:21;8.98;;;1.33;;
52396;SDS011;38322;53.108;6.308;2022-09-14T19:18:48;1.73;;;0.47;;
52396;SDS011;38322;53.108;6.308;2022-09-14T19:21:21;5.72;;;1.02;;
52396;SDS011;38322;53.108;6.308;2022-09-14T19:23:56;6.65;;;1.38;;
52396;SDS011;38322;53.108;6.308;2022-09-14T19:26:24;3.67;;;1.08;;
52396;SDS011;38322;53.108;6.308;2022-09-14T19:28:51;3.28;;;0.90;;
52396;SDS011;38322;53.108;6.308;2022-09-14T19:31:18;3.67;;;0.85;;
52396;SDS011;38322;53.108;6.308;2022-09-14T19:33:46;4.10;;;0.70;;
52396;SDS011;38322;53.108;6.308;2022-09-14T19:36:13;3.85;;;0.90;;
52396;SDS011;38322;53.108;6.308;2022-09-14T19:38:40;7.40;;;1.27;;
52396;SDS011;38322;53.108;6.308;2022-09-14T19:41:06;5.22;;;1.73;;
52396;SDS011;38322;53.108;6.308;2022-09-14T19:43:32;2.75;;;0.75;;
52396;SDS011;38322;53.108;6.308;2022-09-14T19:46:00;1.63;;;0.50;;
52396;SDS011;38322;53.108;6.308;2022-09-14T19:48:29;1.67;;;0.43;;
52396;SDS011;38322;53.108;6.308;2022-09-14T19:50:57;4.63;;;0.70;;
52396;SDS011;38322;53.108;6.308;2022-09-14T19:53:24;2.60;;;0.70;;
52396;SDS011;38322;53.108;6.308;2022-09-14T19:55:50;6.65;;;1.05;;
52396;SDS011;38322;53.108;6.308;2022-09-14T19:58:16;1.73;;;0.80;;
52396;SDS011;38322;53.108;6.308;2022-09-14T20:00:42;3.75;;;0.93;;
